Time;durP1;ratioP1;P1;durP2;ratioP2;P2;SDS_P1;SDS_P2;PMS_P1;PMS_P2;Temp;Humidity;BMP_temperature;BMP_pressure;BME280_temperature;BME280_humidity;BME280_pressure;Samples;Min_cycle;Max_cycle;Signal;HPM_P1;HPM_P2
2021/10/05 00:02:53;;;;;;;3.95;1.98;;;;;;;10.09;95.55;101029.72;10454951;28;20048;-79
2021/10/05 00:07:56;;;;;;;2.80;1.70;;;;;;;10.01;96.77;101028.72;10454627;28;20064;-79
2021/10/05 00:12:57;;;;;;;4.47;1.90;;;;;;;10.38;92.87;101042.41;10464708;28;20055;-79
2021/10/05 00:17:59;;;;;;;5.00;2.13;;;;;;;10.21;93.90;101042.03;10490694;28;20459;-79
2021/10/05 00:23:00;;;;;;;7.15;2.40;;;;;;;10.35;92.36;101038.03;10454277;28;20063;-79
2021/10/05 00:28:02;;;;;;;2.45;2.30;;;;;;;10.25;92.72;101033.50;10455548;28;20091;-79
2021/10/05 00:33:04;;;;;;;3.60;2.10;;;;;;;10.40;92.09;101032.06;10478167;28;20049;-78
2021/10/05 00:38:06;;;;;;;4.88;2.65;;;;;;;10.19;93.72;101027.31;10453296;28;20061;-79
2021/10/05 00:43:08;;;;;;;2.72;1.92;;;;;;;10.11;94.46;101032.34;10456338;28;20049;-79
2021/10/05 00:48:10;;;;;;;2.92;2.00;;;;;;;10.14;94.12;101016.88;10456889;28;20060;-79
2021/10/05 00:53:12;;;;;;;11.73;3.35;;;;;;;10.13;94.26;101009.97;10461915;28;20049;-79
2021/10/05 00:58:14;;;;;;;4.38;1.98;;;;;;;10.19;93.29;100999.75;10453498;28;20065;-79
2021/10/05 01:03:15;;;;;;;5.22;1.95;;;;;;;9.93;96.36;100995.81;10452798;28;20060;-79
2021/10/05 01:08:21;;;;;;;2.83;1.80;;;;;;;10.15;94.12;100984.16;10452455;28;20049;-78
2021/10/05 01:13:23;;;;;;;4.85;2.22;;;;;;;10.06;94.09;100975.41;10458486;28;20413;-79
2021/10/05 01:18:24;;;;;;;4.68;1.90;;;;;;;10.02;94.44;100967.53;10453031;28;20053;-80
2021/10/05 01:23:27;;;;;;;2.92;2.13;;;;;;;10.02;94.53;100962.38;10452369;28;20049;-78
2021/10/05 01:28:30;;;;;;;5.60;2.25;;;;;;;9.98;94.52;100955.41;10453477;28;20493;-79
2021/10/05 01:33:32;;;;;;;2.20;2.00;;;;;;;9.87;94.97;100942.31;10452466;28;20547;-79
2021/10/05 01:38:33;;;;;;;2.80;2.05;;;;;;;9.73;96.00;100941.16;10452765;28;20063;-79
2021/10/05 01:43:35;;;;;;;3.40;1.85;;;;;;;9.68;96.91;100930.72;10457674;28;20060;-79
2021/10/05 01:48:36;;;;;;;2.05;1.67;;;;;;;9.65;97.10;100932.38;10449808;28;20106;-79
2021/10/05 01:53:39;;;;;;;3.33;1.67;;;;;;;9.49;98.05;100914.00;10462454;28;20037;-79
2021/10/05 01:58:41;;;;;;;5.35;2.42;;;;;;;9.52;98.18;100915.75;10460470;28;20532;-79
2021/10/05 02:03:42;;;;;;;2.63;1.73;;;;;;;9.67;97.29;100917.78;10465070;28;20493;-79
2021/10/05 02:08:44;;;;;;;4.88;2.65;;;;;;;9.41;99.04;100914.66;10471843;28;20057;-79
2021/10/05 02:13:45;;;;;;;5.50;2.35;;;;;;;9.51;98.96;100908.84;10469351;28;20071;-79
2021/10/05 02:18:47;;;;;;;4.65;1.98;;;;;;;9.50;99.08;100897.66;10472567;28;20386;-79
2021/10/05 02:29:09;;;;;;;4.95;2.00;;;;;;;9.86;96.59;100878.53;10494530;28;20049;-79
2021/10/05 02:34:12;;;;;;;4.88;1.90;;;;;;;9.71;98.15;100873.97;10459251;28;20048;-79
2021/10/05 02:39:14;;;;;;;7.07;2.20;;;;;;;9.64;98.56;100868.63;10458747;28;20485;-79
2021/10/05 02:44:15;;;;;;;4.30;1.83;;;;;;;9.44;100.00;100866.53;10458912;28;20053;-79
2021/10/05 02:49:17;;;;;;;5.05;2.05;;;;;;;9.52;99.91;100851.19;10462333;28;20381;-79
2021/10/05 02:54:19;;;;;;;2.58;2.13;;;;;;;9.32;100.00;100845.66;10485582;28;20060;-78
2021/10/05 02:59:20;;;;;;;6.90;1.88;;;;;;;9.46;100.00;100840.75;10481047;28;20049;-79
2021/10/05 03:04:22;;;;;;;3.83;2.38;;;;;;;9.42;100.00;100826.94;10456735;28;20052;-79
2021/10/05 03:09:24;;;;;;;9.50;2.50;;;;;;;9.42;100.00;100802.81;10456574;28;20059;-80
2021/10/05 03:14:25;;;;;;;9.18;2.53;;;;;;;9.25;100.00;100805.94;10456587;28;20059;-79
2021/10/05 03:19:27;;;;;;;4.70;2.20;;;;;;;9.22;100.00;100790.38;10455898;28;20067;-78
2021/10/05 03:24:29;;;;;;;7.80;2.45;;;;;;;9.38;100.00;100780.34;10456003;28;20053;-78
2021/10/05 03:29:30;;;;;;;5.50;2.42;;;;;;;9.50;100.00;100784.03;10456012;28;20048;-79
2021/10/05 03:34:32;;;;;;;5.68;2.42;;;;;;;9.49;100.00;100766.81;10457554;28;20401;-79
2021/10/05 03:39:33;;;;;;;2.75;2.08;;;;;;;9.52;100.00;100760.81;10456116;28;20485;-79
2021/10/05 03:44:35;;;;;;;5.00;2.88;;;;;;;9.49;100.00;100755.59;10454918;28;20052;-78
2021/10/05 03:49:37;;;;;;;6.50;2.85;;;;;;;9.52;100.00;100758.22;10474447;28;20045;-79
2021/10/05 03:54:38;;;;;;;3.35;2.13;;;;;;;9.50;100.00;100755.63;10461948;28;20064;-79
2021/10/05 03:59:40;;;;;;;4.25;2.42;;;;;;;9.38;100.00;100745.09;10480139;28;20061;-79
2021/10/05 04:04:41;;;;;;;3.53;2.05;;;;;;;9.34;100.00;100734.66;10455850;28;20059;-79
2021/10/05 04:09:43;;;;;;;4.85;2.40;;;;;;;9.29;100.00;100735.44;10454973;28;20060;-78
2021/10/05 04:14:45;;;;;;;2.67;2.40;;;;;;;9.35;100.00;100729.53;10453978;28;20413;-79
2021/10/05 04:19:46;;;;;;;3.40;1.92;;;;;;;9.26;100.00;100722.50;10455468;28;20049;-79
2021/10/05 04:24:48;;;;;;;8.48;2.30;;;;;;;9.21;100.00;100713.81;10454742;28;20045;-78
2021/10/05 04:29:52;;;;;;;4.22;2.20;;;;;;;9.07;100.00;100715.25;10472480;28;20056;-79
2021/10/05 04:34:54;;;;;;;5.68;2.35;;;;;;;9.26;100.00;100707.00;10452166;28;20044;-79
2021/10/05 04:39:56;;;;;;;4.78;3.40;;;;;;;9.54;100.00;100694.59;10438783;28;20481;-79
2021/10/05 04:44:57;;;;;;;2.80;2.60;;;;;;;9.38;100.00;100708.06;10453788;28;20045;-78
2021/10/05 04:50:01;;;;;;;7.55;2.28;;;;;;;9.32;100.00;100677.00;10464756;28;20424;-79
2021/10/05 04:55:04;;;;;;;2.40;2.20;;;;;;;9.38;100.00;100659.03;10495079;28;20055;-79
2021/10/05 05:00:07;;;;;;;2.55;2.35;;;;;;;9.36;100.00;100671.91;10457483;28;20064;-78
2021/10/05 05:05:09;;;;;;;2.95;1.95;;;;;;;9.40;100.00;100660.78;10452276;28;20049;-78
2021/10/05 05:10:11;;;;;;;4.00;2.22;;;;;;;9.41;100.00;100649.59;10453074;28;20053;-77
2021/10/05 05:15:16;;;;;;;2.65;1.95;;;;;;;9.54;99.86;100654.13;10453391;28;20049;-77
2021/10/05 05:20:17;;;;;;;3.75;2.97;;;;;;;9.52;99.94;100644.59;10467055;28;20140;-78
2021/10/05 05:25:19;;;;;;;3.25;2.03;;;;;;;9.51;100.00;100637.72;10461194;28;20044;-78
2021/10/05 05:30:20;;;;;;;3.50;1.85;;;;;;;9.53;99.46;100634.31;10460008;28;20056;-78
2021/10/05 05:35:22;;;;;;;2.45;2.00;;;;;;;9.36;100.00;100629.72;10454209;28;20516;-78
2021/10/05 05:40:23;;;;;;;4.28;2.60;;;;;;;9.45;100.00;100624.69;10449731;28;20094;-78
2021/10/05 05:45:25;;;;;;;4.13;3.15;;;;;;;9.40;100.00;100611.72;10455114;28;20505;-78
2021/10/05 05:50:26;;;;;;;6.97;3.00;;;;;;;9.31;100.00;100605.56;10465060;28;20041;-78
2021/10/05 05:55:29;;;;;;;8.27;3.85;;;;;;;9.23;100.00;100601.13;10457212;28;20048;-78
2021/10/05 06:00:30;;;;;;;4.55;3.58;;;;;;;9.35;100.00;100594.41;10470364;28;20051;-77
2021/10/05 06:05:33;;;;;;;8.88;3.30;;;;;;;9.33;100.00;100596.13;10457770;28;20478;-77
2021/10/05 06:10:35;;;;;;;8.52;3.65;;;;;;;9.16;100.00;100590.69;10460476;28;20080;-78
2021/10/05 06:15:37;;;;;;;9.07;3.88;;;;;;;9.19;100.00;100585.56;10460708;28;20131;-78
2021/10/05 06:20:39;;;;;;;8.13;4.63;;;;;;;9.15;100.00;100587.25;10458608;28;20049;-78
2021/10/05 06:25:42;;;;;;;6.18;3.97;;;;;;;9.18;100.00;100579.53;10458882;28;20060;-79
2021/10/05 06:30:43;;;;;;;7.32;5.05;;;;;;;9.16;100.00;100570.91;10461681;28;20139;-78
2021/10/05 06:35:45;;;;;;;5.28;4.40;;;;;;;9.12;100.00;100573.41;10458396;28;20053;-77
2021/10/05 06:40:47;;;;;;;9.50;5.60;;;;;;;9.10;100.00;100568.22;10459194;28;20059;-77
2021/10/05 06:45:48;;;;;;;6.65;5.20;;;;;;;9.17;100.00;100582.97;10448108;28;20056;-78
2021/10/05 06:50:50;;;;;;;10.63;5.30;;;;;;;9.31;100.00;100572.88;10458534;28;20045;-77
2021/10/05 06:55:51;;;;;;;9.50;5.53;;;;;;;9.38;100.00;100571.25;10470718;28;20048;-77
2021/10/05 07:00:53;;;;;;;8.38;6.30;;;;;;;9.41;100.00;100571.28;10477281;28;20117;-78
2021/10/05 07:05:55;;;;;;;6.03;5.43;;;;;;;9.60;100.00;100552.63;10483289;28;20062;-78
2021/10/05 07:10:56;;;;;;;9.82;5.75;;;;;;;9.75;100.00;100542.50;10465930;28;20049;-77
2021/10/05 07:15:58;;;;;;;10.85;5.28;;;;;;;9.86;100.00;100534.88;10469584;28;20056;-78
2021/10/05 07:21:00;;;;;;;7.25;4.60;;;;;;;9.98;100.00;100537.63;10481221;28;20539;-77
2021/10/05 07:26:02;;;;;;;5.38;4.10;;;;;;;10.04;100.00;100540.31;10472539;28;20053;-77
2021/10/05 07:31:03;;;;;;;5.35;4.38;;;;;;;10.35;98.89;100538.94;10461712;28;20554;-77
2021/10/05 07:36:18;;;;;;;4.43;3.97;;;;;;;10.67;96.92;100519.44;10471691;28;20049;-78
2021/10/05 07:41:19;;;;;;;5.90;3.85;;;;;;;10.83;95.99;100519.59;10474193;28;20048;-78
2021/10/05 07:46:21;;;;;;;7.13;3.33;;;;;;;11.04;96.29;100505.94;10467210;28;20425;-77
2021/10/05 07:51:23;;;;;;;3.47;2.90;;;;;;;11.37;93.03;100496.66;10443535;28;20139;-77
2021/10/05 07:56:25;;;;;;;12.18;4.72;;;;;;;11.33;92.65;100492.31;10472762;28;20048;-78
2021/10/05 08:01:27;;;;;;;5.43;3.95;;;;;;;11.39;93.03;100477.66;10494635;28;20060;-78
2021/10/05 08:06:29;;;;;;;3.92;3.13;;;;;;;11.39;91.77;100471.63;10454403;28;20045;-77
2021/10/05 08:11:30;;;;;;;9.95;4.20;;;;;;;11.47;92.59;100457.00;10454947;28;20143;-77
2021/10/05 08:16:32;;;;;;;6.30;3.45;;;;;;;11.62;92.26;100456.19;10451602;28;20045;-77
2021/10/05 08:21:34;;;;;;;5.90;3.22;;;;;;;11.86;91.75;100445.97;10463723;28;20045;-77
2021/10/05 08:26:35;;;;;;;4.47;2.83;;;;;;;11.90;90.97;100449.41;10455247;28;20067;-77
2021/10/05 08:31:37;;;;;;;8.20;3.30;;;;;;;12.36;89.35;100424.41;10464077;28;20052;-77
2021/10/05 08:36:39;;;;;;;5.55;3.38;;;;;;;12.22;89.15;100423.56;10454785;28;20040;-76
2021/10/05 08:41:46;;;;;;;4.97;3.03;;;;;;;12.57;85.46;100420.97;10454108;28;20057;-78
2021/10/05 08:46:48;;;;;;;4.30;2.33;;;;;;;12.78;84.31;100401.06;10452417;28;20056;-78
2021/10/05 08:51:52;;;;;;;4.97;2.72;;;;;;;12.92;82.35;100384.59;10465118;28;20441;-80
2021/10/05 08:56:53;;;;;;;5.45;3.28;;;;;;;13.04;83.21;100393.22;10462550;28;20049;-76
2021/10/05 09:01:57;;;;;;;5.68;2.42;;;;;;;13.29;82.64;100387.13;10460926;28;20065;-82
2021/10/05 09:06:58;;;;;;;4.32;2.90;;;;;;;13.30;82.34;100375.84;10462971;28;20083;-78
2021/10/05 09:12:00;;;;;;;3.35;2.35;;;;;;;13.48;82.63;100367.09;10463123;28;20064;-78
2021/10/05 09:17:02;;;;;;;6.40;2.83;;;;;;;13.54;82.61;100361.88;10460964;28;20049;-81
2021/10/05 09:22:04;;;;;;;6.75;3.70;;;;;;;13.82;79.88;100333.13;10462610;28;20051;-79
2021/10/05 09:27:05;;;;;;;3.75;2.42;;;;;;;13.66;84.20;100334.94;10502192;28;20056;-78
2021/10/05 09:32:12;;;;;;;4.97;2.47;;;;;;;14.08;80.04;100310.38;10485160;28;20053;-78
2021/10/05 09:37:18;;;;;;;5.80;2.70;;;;;;;14.31;79.97;100303.25;10460419;28;20045;-78
2021/10/05 09:42:21;;;;;;;32.90;3.43;;;;;;;14.23;81.16;100298.97;10460605;28;20052;-78
2021/10/05 09:48:00;;;;;;;4.20;1.80;;;;;;;14.47;79.58;100297.94;10472081;28;20052;-78
2021/10/05 09:53:07;;;;;;;5.60;2.40;;;;;;;14.97;76.44;100297.34;10447948;28;20053;-77
2021/10/05 09:58:09;;;;;;;3.33;1.95;;;;;;;15.06;75.82;100281.63;10501286;28;20412;-77
2021/10/05 10:03:11;;;;;;;4.75;2.42;;;;;;;15.56;74.13;100269.63;10481421;28;20056;-82
2021/10/05 10:08:15;;;;;;;3.13;1.83;;;;;;;15.69;73.21;100254.69;10459104;28;20120;-77
2021/10/05 10:13:19;;;;;;;3.45;2.33;;;;;;;15.84;73.70;100251.00;10456975;28;20049;-81
2021/10/05 10:18:22;;;;;;;4.32;2.38;;;;;;;15.88;71.64;100242.19;10467404;28;20048;-79
2021/10/05 10:23:26;;;;;;;5.25;1.92;;;;;;;16.20;69.36;100240.78;10453979;28;20045;-78
2021/10/05 10:28:31;;;;;;;4.32;2.05;;;;;;;16.45;68.97;100229.03;10452032;28;20053;-79
2021/10/05 10:33:50;;;;;;;6.75;1.65;;;;;;;16.88;66.74;100234.25;10468258;28;20055;-79
2021/10/05 10:39:06;;;;;;;4.38;1.65;;;;;;;16.77;67.22;100231.00;10464426;28;20131;-77
2021/10/05 10:44:11;;;;;;;;;;;;;;;17.13;66.61;100225.88;10468054;28;20041;-79
2021/10/05 10:49:15;;;;;;;7.20;2.25;;;;;;;16.95;67.50;100225.38;10482717;28;19920;-80
2021/10/05 10:54:19;;;;;;;5.38;1.88;;;;;;;17.21;66.72;100211.75;10460892;28;20053;-78
2021/10/05 10:59:25;;;;;;;6.43;1.90;;;;;;;16.80;68.86;100214.44;10456779;28;20053;-80
2021/10/05 11:04:27;;;;;;;;;;;;;;;16.51;69.21;100215.84;10459027;28;20544;-77
2021/10/05 11:09:33;;;;;;;3.67;1.50;;;;;;;16.45;69.85;100210.75;10456407;28;19928;-78
2021/10/05 11:14:39;;;;;;;4.10;1.95;;;;;;;16.44;70.62;100196.81;10464718;28;20052;-80
2021/10/05 11:19:42;;;;;;;5.83;2.60;;;;;;;16.31;70.61;100204.91;10457690;28;20049;-79
2021/10/05 11:24:48;;;;;;;3.03;1.52;;;;;;;16.14;70.41;100198.25;10487255;28;20059;-78
2021/10/05 11:29:51;;;;;;;4.05;1.50;;;;;;;15.98;70.98;100194.19;10470134;28;20045;-78
2021/10/05 11:34:53;;;;;;;1.83;1.40;;;;;;;16.03;69.87;100181.06;10456561;28;20102;-80
2021/10/05 11:39:56;;;;;;;6.00;1.20;;;;;;;15.95;70.72;100178.63;10455554;28;20421;-82
2021/10/05 11:45:04;;;;;;;2.40;1.02;;;;;;;15.89;70.35;100169.16;10455290;28;20055;-79
2021/10/05 11:50:07;;;;;;;4.55;1.33;;;;;;;15.80;71.33;100155.41;10473744;28;20053;-79
2021/10/05 11:55:09;;;;;;;4.15;1.40;;;;;;;15.78;72.05;100149.38;10476680;28;20095;-79
2021/10/05 12:00:11;;;;;;;1.60;1.05;;;;;;;15.69;73.13;100134.72;10454731;28;20057;-78
2021/10/05 12:05:25;;;;;;;2.92;1.10;;;;;;;15.80;71.58;100121.50;10453975;28;20045;-80
2021/10/05 12:10:28;;;;;;;3.80;1.63;;;;;;;15.70;72.77;100127.75;10453855;28;20058;-81
2021/10/05 12:15:30;;;;;;;6.35;1.30;;;;;;;15.68;72.58;100113.91;10453505;28;20047;-80
2021/10/05 12:20:32;;;;;;;4.22;1.25;;;;;;;15.79;72.13;100093.69;10454223;28;20045;-77
2021/10/05 12:25:38;;;;;;;3.63;1.08;;;;;;;15.80;72.18;100096.25;10467401;28;20051;-78
2021/10/05 12:30:40;;;;;;;2.63;1.30;;;;;;;15.63;74.69;100099.19;10456978;28;20048;-79
2021/10/05 12:35:42;;;;;;;5.68;1.75;;;;;;;15.58;75.14;100093.16;10473150;28;20051;-79
2021/10/05 12:40:45;;;;;;;3.70;1.27;;;;;;;15.56;74.72;100089.72;10468489;28;20504;-78
2021/10/05 12:45:58;;;;;;;3.25;1.30;;;;;;;15.44;77.54;100092.56;10455252;28;20053;-79
2021/10/05 12:51:03;;;;;;;4.82;1.83;;;;;;;15.10;82.52;100100.06;10454637;28;20095;-79
2021/10/05 12:56:05;;;;;;;4.83;1.30;;;;;;;14.77;87.34;100083.22;10454454;28;20055;-79
2021/10/05 13:01:08;;;;;;;9.20;1.80;;;;;;;14.73;88.33;100074.56;10452654;28;20084;-80
2021/10/05 13:06:11;;;;;;;2.90;1.20;;;;;;;14.65;88.81;100080.78;10453361;28;20045;-80
2021/10/05 13:11:15;;;;;;;3.15;1.50;;;;;;;14.51;90.48;100070.53;10466266;28;20551;-81
2021/10/05 13:16:17;;;;;;;2.75;1.20;;;;;;;14.43;92.20;100067.16;10463505;28;20044;-83
2021/10/05 13:21:19;;;;;;;5.57;1.02;;;;;;;14.18;92.03;100079.63;10472580;28;20128;-78
2021/10/05 13:26:21;;;;;;;3.22;1.20;;;;;;;13.88;96.30;100088.66;10471901;28;20071;-77
2021/10/05 13:31:23;;;;;;;5.20;1.20;;;;;;;13.56;99.75;100087.25;10473021;28;20052;-79
2021/10/05 13:36:25;;;;;;;6.53;1.40;;;;;;;13.41;100.00;100082.19;10452453;28;20532;-78
2021/10/05 13:41:26;;;;;;;2.88;1.08;;;;;;;13.35;100.00;100083.13;10468105;28;20057;-78
2021/10/05 13:46:28;;;;;;;4.25;1.05;;;;;;;13.28;100.00;100071.06;10461410;28;20523;-79
2021/10/05 13:51:29;;;;;;;2.95;1.10;;;;;;;13.26;100.00;100059.81;10463283;28;20136;-81
2021/10/05 13:56:32;;;;;;;4.18;1.00;;;;;;;13.11;100.00;100072.91;10459687;28;20048;-81
2021/10/05 14:01:34;;;;;;;2.78;1.58;;;;;;;13.02;100.00;100066.03;10459331;28;20520;-82
2021/10/05 14:06:36;;;;;;;3.05;1.45;;;;;;;12.97;100.00;100068.66;10460966;28;20401;-80
2021/10/05 14:11:38;;;;;;;3.70;1.30;;;;;;;12.93;100.00;100069.59;10457402;28;20053;-81
2021/10/05 14:16:40;;;;;;;1.83;1.35;;;;;;;12.92;100.00;100064.38;10459447;28;20052;-80
2021/10/05 14:21:42;;;;;;;2.92;1.40;;;;;;;12.88;100.00;100054.91;10485085;28;20488;-76
2021/10/05 14:26:45;;;;;;;2.92;1.70;;;;;;;12.88;100.00;100052.31;10474965;28;20049;-82
2021/10/05 14:31:46;;;;;;;3.83;1.52;;;;;;;12.78;100.00;100054.09;10465711;28;20079;-77
2021/10/05 14:36:49;;;;;;;3.47;1.73;;;;;;;12.76;100.00;100066.22;10476975;28;20102;-79
2021/10/05 14:41:52;;;;;;;5.50;1.90;;;;;;;12.76;100.00;100053.22;10474447;28;20048;-78
2021/10/05 14:46:54;;;;;;;3.90;1.52;;;;;;;12.74;100.00;100055.84;10446228;28;20404;-80
2021/10/05 14:51:55;;;;;;;3.22;1.90;;;;;;;12.72;100.00;100044.63;10461178;28;20064;-79
2021/10/05 14:56:57;;;;;;;3.55;1.88;;;;;;;12.69;100.00;100056.75;10458871;28;20045;-78
2021/10/05 15:01:58;;;;;;;2.70;2.03;;;;;;;12.70;100.00;100042.91;10465822;28;20417;-77
2021/10/05 15:07:00;;;;;;;3.03;1.45;;;;;;;12.69;100.00;100052.41;10478452;28;20045;-78
2021/10/05 15:12:02;;;;;;;3.83;1.90;;;;;;;12.77;100.00;100069.69;10473284;28;20056;-78
2021/10/05 15:17:04;;;;;;;2.53;1.50;;;;;;;12.77;100.00;100077.47;10478942;28;20051;-77
2021/10/05 15:22:05;;;;;;;4.20;2.40;;;;;;;12.82;100.00;100084.38;10458111;28;20057;-77
2021/10/05 15:27:07;;;;;;;3.28;2.63;;;;;;;13.05;100.00;100093.72;10456286;28;20048;-76
2021/10/05 15:32:27;;;;;;;5.45;2.58;;;;;;;13.06;100.00;100095.44;10456134;28;20052;-76
2021/10/05 15:37:29;;;;;;;3.83;1.98;;;;;;;13.05;100.00;100096.31;10456097;28;20070;-75
2021/10/05 15:42:30;;;;;;;4.50;1.90;;;;;;;12.98;100.00;100098.09;10456753;28;20052;-76
2021/10/05 15:47:32;;;;;;;6.32;1.92;;;;;;;12.97;100.00;100093.78;10454831;28;20485;-75
2021/10/05 15:57:55;;;;;;;2.70;1.60;;;;;;;13.02;100.00;100104.97;10465175;28;20057;-75
2021/10/05 16:02:57;;;;;;;7.40;2.45;;;;;;;13.14;100.00;100107.50;10468606;28;20052;-75
2021/10/05 16:08:02;;;;;;;3.75;1.83;;;;;;;13.12;100.00;100118.78;10471733;28;20048;-75
2021/10/05 16:13:04;;;;;;;4.45;1.60;;;;;;;13.09;100.00;100126.56;10454852;28;20064;-75
2021/10/05 16:18:06;;;;;;;5.93;2.30;;;;;;;13.00;100.00;100133.56;10454145;28;20049;-75
2021/10/05 16:23:07;;;;;;;4.70;3.03;;;;;;;12.99;100.00;100143.97;10454079;28;20497;-75
2021/10/05 16:28:15;;;;;;;7.07;2.78;;;;;;;12.92;100.00;100148.31;10460932;28;20057;-75
2021/10/05 16:33:20;;;;;;;4.70;2.50;;;;;;;12.84;100.00;100160.50;10472250;28;20059;-75
2021/10/05 16:38:22;;;;;;;5.82;2.50;;;;;;;12.73;100.00;100150.16;10471402;28;20055;-75
2021/10/05 16:43:24;;;;;;;4.65;2.30;;;;;;;12.63;100.00;100158.00;10452936;28;20111;-75
2021/10/05 16:48:25;;;;;;;8.32;2.40;;;;;;;12.55;100.00;100157.19;10461234;28;20373;-76
2021/10/05 16:53:27;;;;;;;3.05;2.47;;;;;;;12.56;100.00;100159.75;10453451;28;20049;-76
2021/10/05 16:58:28;;;;;;;4.63;3.10;;;;;;;12.60;100.00;100164.09;10472267;28;20065;-76
2021/10/05 17:03:30;;;;;;;5.90;2.67;;;;;;;12.57;100.00;100179.66;10447782;28;20056;-76
2021/10/05 17:08:32;;;;;;;5.85;2.65;;;;;;;12.44;100.00;100181.44;10454375;28;20045;-78
2021/10/05 17:13:33;;;;;;;6.20;3.15;;;;;;;12.32;100.00;100180.63;10454422;28;20049;-78
2021/10/05 17:18:35;;;;;;;4.88;3.17;;;;;;;12.18;100.00;100178.06;10460887;28;20041;-77
2021/10/05 17:23:36;;;;;;;9.10;5.10;;;;;;;12.25;100.00;100191.84;10461491;28;20056;-78
2021/10/05 17:28:38;;;;;;;4.88;3.20;;;;;;;11.97;100.00;100188.47;10460921;28;20041;-77
2021/10/05 17:33:40;;;;;;;5.22;3.40;;;;;;;11.85;100.00;100204.88;10470521;28;20048;-77
2021/10/05 17:38:41;;;;;;;6.93;3.13;;;;;;;11.67;100.00;100192.78;10480598;28;20048;-76
2021/10/05 17:43:43;;;;;;;5.38;3.08;;;;;;;11.63;100.00;100202.31;10484066;28;20052;-76
2021/10/05 17:48:45;;;;;;;5.78;3.40;;;;;;;11.52;100.00;100197.97;10462449;28;20055;-76
2021/10/05 17:53:47;;;;;;;6.57;4.03;;;;;;;11.38;100.00;100203.13;10461166;28;20049;-76
2021/10/05 17:58:49;;;;;;;5.25;4.00;;;;;;;11.31;100.00;100211.75;10482391;28;20065;-76
2021/10/05 18:03:52;;;;;;;8.38;4.80;;;;;;;11.39;100.00;100223.84;10482439;28;20055;-76
2021/10/05 18:08:55;;;;;;;7.80;5.35;;;;;;;11.36;100.00;100220.41;10452883;28;20044;-77
2021/10/05 18:13:56;;;;;;;9.00;5.68;;;;;;;11.34;100.00;100227.28;10465644;28;20048;-78
2021/10/05 18:18:58;;;;;;;8.75;5.55;;;;;;;11.30;100.00;100239.38;10473300;28;20489;-76
2021/10/05 18:24:01;;;;;;;7.03;4.43;;;;;;;11.26;100.00;100236.78;10469524;28;20057;-75
2021/10/05 18:29:03;;;;;;;7.82;6.00;;;;;;;11.20;100.00;100249.72;10473135;28;20052;-75
2021/10/05 18:34:04;;;;;;;7.78;5.50;;;;;;;11.11;100.00;100253.13;10477878;28;20052;-75
2021/10/05 18:39:06;;;;;;;10.07;4.43;;;;;;;11.05;100.00;100264.31;10475903;28;20044;-76
2021/10/05 18:44:08;;;;;;;8.30;5.50;;;;;;;11.00;100.00;100266.03;10480564;28;20145;-75
2021/10/05 18:49:09;;;;;;;9.18;5.13;;;;;;;10.98;100.00;100265.19;10477527;28;20404;-77
2021/10/05 18:54:11;;;;;;;8.98;4.65;;;;;;;10.92;100.00;100270.34;10476758;28;20464;-76
2021/10/05 18:59:12;;;;;;;8.50;4.57;;;;;;;11.03;100.00;100273.81;10478125;28;20408;-75
2021/10/05 19:04:14;;;;;;;10.85;4.28;;;;;;;11.17;100.00;100285.94;10466132;28;20090;-76
2021/10/05 19:09:16;;;;;;;6.35;3.92;;;;;;;11.05;100.00;100289.34;10475245;28;20044;-75
2021/10/05 19:14:17;;;;;;;10.85;4.18;;;;;;;10.90;100.00;100289.31;10478901;28;20049;-75
2021/10/05 19:19:19;;;;;;;6.82;4.25;;;;;;;10.79;100.00;100284.94;10474110;28;20048;-75
2021/10/05 19:24:20;;;;;;;7.05;3.80;;;;;;;10.80;100.00;100293.56;10470086;28;20049;-75
2021/10/05 19:29:22;;;;;;;6.30;3.33;;;;;;;10.66;100.00;100296.06;10471863;28;20040;-75
2021/10/05 19:34:24;;;;;;;8.23;3.88;;;;;;;10.68;100.00;100296.97;10476650;28;20610;-76
2021/10/05 19:39:26;;;;;;;5.30;3.45;;;;;;;10.62;100.00;100315.03;10473966;28;20051;-75
2021/10/05 19:44:27;;;;;;;6.65;3.78;;;;;;;10.57;100.00;100321.91;10477320;28;20110;-75
2021/10/05 19:49:29;;;;;;;6.25;3.20;;;;;;;10.47;100.00;100317.50;10468428;28;20091;-75
2021/10/05 19:54:31;;;;;;;9.15;3.17;;;;;;;10.52;100.00;100324.44;10504390;28;20041;-76
2021/10/05 19:59:33;;;;;;;5.65;3.05;;;;;;;10.54;100.00;100338.25;10495797;28;20048;-76
2021/10/05 20:04:34;;;;;;;9.32;2.92;;;;;;;10.52;100.00;100345.13;10457714;28;20060;-76
2021/10/05 20:09:36;;;;;;;4.82;3.10;;;;;;;10.48;100.00;100330.44;10452668;28;20562;-76
2021/10/05 20:14:39;;;;;;;7.18;3.40;;;;;;;10.39;100.00;100343.34;10469062;28;20057;-75
2021/10/05 20:19:40;;;;;;;7.78;2.83;;;;;;;10.28;100.00;100344.97;10455638;28;20048;-75
2021/10/05 20:24:43;;;;;;;4.78;3.03;;;;;;;10.25;100.00;100353.56;10455720;28;20061;-75
2021/10/05 20:29:44;;;;;;;5.95;2.88;;;;;;;10.24;100.00;100356.13;10455470;28;20045;-76
2021/10/05 20:34:47;;;;;;;7.57;2.97;;;;;;;10.24;100.00;100356.13;10455084;28;20087;-76
2021/10/05 20:39:49;;;;;;;9.18;3.72;;;;;;;10.13;100.00;100355.13;10455021;28;20075;-76
2021/10/05 20:44:50;;;;;;;6.63;2.80;;;;;;;10.24;100.00;100369.06;10455091;28;20053;-76
2021/10/05 20:49:52;;;;;;;7.68;2.60;;;;;;;10.22;100.00;100369.03;10466632;28;20059;-76
2021/10/05 20:54:53;;;;;;;3.70;2.70;;;;;;;10.24;100.00;100376.81;10454924;28;20436;-75
2021/10/05 20:59:57;;;;;;;4.50;2.35;;;;;;;10.17;100.00;100378.44;10454365;28;20052;-75
2021/10/05 21:04:58;;;;;;;3.25;2.42;;;;;;;10.23;100.00;100381.13;10454303;28;20106;-74
2021/10/05 21:10:00;;;;;;;3.65;2.17;;;;;;;10.17;100.00;100387.94;10454027;28;20103;-76
2021/10/05 21:15:02;;;;;;;3.92;2.60;;;;;;;10.07;100.00;100405.06;10489960;28;20057;-76
2021/10/05 21:20:05;;;;;;;4.70;2.17;;;;;;;10.11;100.00;100412.00;10453400;28;20106;-75
2021/10/05 21:25:07;;;;;;;3.08;2.75;;;;;;;10.07;100.00;100405.06;10454003;28;20079;-75
2021/10/05 21:30:08;;;;;;;6.38;3.50;;;;;;;10.04;100.00;100417.94;10453229;28;20053;-76
2021/10/05 21:35:10;;;;;;;9.48;2.92;;;;;;;9.95;100.00;100430.78;10452544;28;20486;-76
2021/10/05 21:40:13;;;;;;;5.57;2.90;;;;;;;10.06;100.00;100429.19;10456267;28;20098;-76
2021/10/05 21:45:15;;;;;;;4.80;2.72;;;;;;;10.06;100.00;100426.59;10492376;28;20448;-75
2021/10/05 21:50:16;;;;;;;5.15;3.10;;;;;;;10.04;100.00;100434.34;10467403;28;20049;-75
2021/10/05 21:55:18;;;;;;;5.60;3.17;;;;;;;9.95;100.00;100451.47;10452124;28;20543;-75
2021/10/05 22:00:25;;;;;;;5.63;2.95;;;;;;;9.92;100.00;100433.31;10455144;28;20057;-75
2021/10/05 22:05:27;;;;;;;7.43;2.60;;;;;;;10.08;100.00;100445.56;10459778;28;20123;-76
2021/10/05 22:10:29;;;;;;;4.78;2.55;;;;;;;10.12;100.00;100459.38;10461459;28;20440;-76
2021/10/05 22:15:31;;;;;;;5.40;2.38;;;;;;;10.03;100.00;100453.25;10465122;28;20049;-75
2021/10/05 22:20:33;;;;;;;4.70;2.35;;;;;;;10.14;100.00;100450.78;10460605;28;20049;-76
2021/10/05 22:25:35;;;;;;;5.38;2.67;;;;;;;10.08;100.00;100471.41;10458648;28;20512;-75
2021/10/05 22:30:36;;;;;;;2.88;2.08;;;;;;;10.04;100.00;100469.63;10458833;28;20056;-76
2021/10/05 22:35:38;;;;;;;4.45;1.88;;;;;;;10.03;100.00;100476.50;10458233;28;20049;-75
2021/10/05 22:40:39;;;;;;;2.58;1.83;;;;;;;9.91;100.00;100491.00;10458430;28;20049;-75
2021/10/05 22:45:41;;;;;;;2.58;1.73;;;;;;;9.87;100.00;100482.38;10458598;28;20037;-76
2021/10/05 22:50:42;;;;;;;3.05;2.08;;;;;;;9.96;100.00;100487.63;10471217;28;20045;-75
2021/10/05 22:55:45;;;;;;;9.07;1.95;;;;;;;9.93;100.00;100508.28;10458269;28;20049;-77
2021/10/05 23:00:47;;;;;;;2.20;1.80;;;;;;;9.88;100.00;100511.66;10457537;28;20067;-76
2021/10/05 23:05:49;;;;;;;4.75;2.38;;;;;;;10.01;100.00;100516.13;10457039;28;20041;-75
2021/10/05 23:10:50;;;;;;;1.80;1.67;;;;;;;9.96;100.00;100515.19;10457725;28;20107;-78
2021/10/05 23:15:52;;;;;;;2.60;1.33;;;;;;;9.93;100.00;100522.94;10482750;28;20051;-77